sensor_id;sensor_type;location;lat;lon;timestamp;temperature;humidity
10644;DHT22;5370;50.132;8.626;2023-07-09T00:02:20;22.60;51.90
10644;DHT22;5370;50.132;8.626;2023-07-09T00:04:46;22.60;51.90
10644;DHT22;5370;50.132;8.626;2023-07-09T00:07:22;22.60;52.10
10644;DHT22;5370;50.132;8.626;2023-07-09T00:09:50;22.50;52.30
10644;DHT22;5370;50.132;8.626;2023-07-09T00:12:17;22.50;52.60
10644;DHT22;5370;50.132;8.626;2023-07-09T00:14:43;22.40;52.70
10644;DHT22;5370;50.132;8.626;2023-07-09T00:17:26;22.40;52.80
10644;DHT22;5370;50.132;8.626;2023-07-09T00:19:52;22.30;53.00
10644;DHT22;5370;50.132;8.626;2023-07-09T00:22:18;22.30;53.10
10644;DHT22;5370;50.132;8.626;2023-07-09T00:24:45;22.20;53.30
10644;DHT22;5370;50.132;8.626;2023-07-09T00:27:13;22.20;53.50
10644;DHT22;5370;50.132;8.626;2023-07-09T00:29:40;22.10;53.50
10644;DHT22;5370;50.132;8.626;2023-07-09T00:32:17;22.00;53.40
10644;DHT22;5370;50.132;8.626;2023-07-09T00:34:46;22.00;53.60
10644;DHT22;5370;50.132;8.626;2023-07-09T00:37:15;21.90;53.60
10644;DHT22;5370;50.132;8.626;2023-07-09T00:39:43;21.90;53.80
10644;DHT22;5370;50.132;8.626;2023-07-09T00:42:20;21.90;54.00
10644;DHT22;5370;50.132;8.626;2023-07-09T00:44:55;21.80;54.20
10644;DHT22;5370;50.132;8.626;2023-07-09T00:47:23;21.80;54.30
10644;DHT22;5370;50.132;8.626;2023-07-09T00:49:56;21.80;54.40
10644;DHT22;5370;50.132;8.626;2023-07-09T00:52:35;21.80;54.60
10644;DHT22;5370;50.132;8.626;2023-07-09T00:55:09;21.80;54.80
10644;DHT22;5370;50.132;8.626;2023-07-09T00:57:37;21.80;54.90
10644;DHT22;5370;50.132;8.626;2023-07-09T01:00:11;21.80;55.00
10644;DHT22;5370;50.132;8.626;2023-07-09T01:02:41;21.80;55.10
10644;DHT22;5370;50.132;8.626;2023-07-09T01:05:10;21.80;55.20
10644;DHT22;5370;50.132;8.626;2023-07-09T01:07:38;21.80;55.40
10644;DHT22;5370;50.132;8.626;2023-07-09T01:10:04;21.70;55.60
10644;DHT22;5370;50.132;8.626;2023-07-09T01:12:30;21.70;55.80
10644;DHT22;5370;50.132;8.626;2023-07-09T01:14:57;21.70;55.80
10644;DHT22;5370;50.132;8.626;2023-07-09T01:17:25;21.70;56.00
10644;DHT22;5370;50.132;8.626;2023-07-09T01:19:53;21.70;55.90
10644;DHT22;5370;50.132;8.626;2023-07-09T01:22:21;21.60;55.90
10644;DHT22;5370;50.132;8.626;2023-07-09T01:24:53;21.60;56.40
10644;DHT22;5370;50.132;8.626;2023-07-09T01:27:23;21.60;56.30
10644;DHT22;5370;50.132;8.626;2023-07-09T01:29:49;21.60;56.50
10644;DHT22;5370;50.132;8.626;2023-07-09T01:32:16;21.60;56.60
10644;DHT22;5370;50.132;8.626;2023-07-09T01:34:47;21.50;56.70
10644;DHT22;5370;50.132;8.626;2023-07-09T01:37:19;21.50;56.90
10644;DHT22;5370;50.132;8.626;2023-07-09T01:39:47;21.50;57.10
10644;DHT22;5370;50.132;8.626;2023-07-09T01:42:15;21.50;57.20
10644;DHT22;5370;50.132;8.626;2023-07-09T01:44:41;21.40;57.20
10644;DHT22;5370;50.132;8.626;2023-07-09T01:47:06;21.40;57.40
10644;DHT22;5370;50.132;8.626;2023-07-09T01:49:32;21.40;57.50
10644;DHT22;5370;50.132;8.626;2023-07-09T01:52:00;21.40;57.50
10644;DHT22;5370;50.132;8.626;2023-07-09T01:54:28;21.30;57.50
10644;DHT22;5370;50.132;8.626;2023-07-09T01:56:54;21.20;57.40
10644;DHT22;5370;50.132;8.626;2023-07-09T01:59:26;21.10;57.50
10644;DHT22;5370;50.132;8.626;2023-07-09T02:01:52;21.10;57.60
10644;DHT22;5370;50.132;8.626;2023-07-09T02:04:18;21.00;57.60
10644;DHT22;5370;50.132;8.626;2023-07-09T02:06:44;21.00;57.80
10644;DHT22;5370;50.132;8.626;2023-07-09T02:09:09;20.90;57.80
10644;DHT22;5370;50.132;8.626;2023-07-09T02:11:35;20.80;57.80
10644;DHT22;5370;50.132;8.626;2023-07-09T02:14:01;20.80;57.90
10644;DHT22;5370;50.132;8.626;2023-07-09T02:16:26;20.80;58.00
10644;DHT22;5370;50.132;8.626;2023-07-09T02:18:52;20.80;58.10
10644;DHT22;5370;50.132;8.626;2023-07-09T02:21:17;20.70;58.20
10644;DHT22;5370;50.132;8.626;2023-07-09T02:23:43;20.60;58.30
10644;DHT22;5370;50.132;8.626;2023-07-09T02:26:08;20.70;58.50
10644;DHT22;5370;50.132;8.626;2023-07-09T02:28:34;20.60;58.50
10644;DHT22;5370;50.132;8.626;2023-07-09T02:31:00;20.60;58.70
10644;DHT22;5370;50.132;8.626;2023-07-09T02:33:25;20.60;58.90
10644;DHT22;5370;50.132;8.626;2023-07-09T02:35:51;20.50;59.00
10644;DHT22;5370;50.132;8.626;2023-07-09T02:38:16;20.60;59.20
10644;DHT22;5370;50.132;8.626;2023-07-09T02:40:42;20.60;59.20
10644;DHT22;5370;50.132;8.626;2023-07-09T02:43:07;20.60;59.20
10644;DHT22;5370;50.132;8.626;2023-07-09T02:45:33;20.50;59.10
10644;DHT22;5370;50.132;8.626;2023-07-09T02:47:58;20.50;59.10
10644;DHT22;5370;50.132;8.626;2023-07-09T02:50:24;20.50;59.20
10644;DHT22;5370;50.132;8.626;2023-07-09T02:52:49;20.50;59.30
10644;DHT22;5370;50.132;8.626;2023-07-09T02:55:15;20.50;59.60
10644;DHT22;5370;50.132;8.626;2023-07-09T02:57:40;20.50;59.70
10644;DHT22;5370;50.132;8.626;2023-07-09T03:00:06;20.50;59.80
10644;DHT22;5370;50.132;8.626;2023-07-09T03:02:33;20.50;59.90
10644;DHT22;5370;50.132;8.626;2023-07-09T03:04:59;20.50;59.90
10644;DHT22;5370;50.132;8.626;2023-07-09T03:07:26;20.50;59.90
10644;DHT22;5370;50.132;8.626;2023-07-09T03:09:51;20.50;59.90
10644;DHT22;5370;50.132;8.626;2023-07-09T03:12:17;20.50;60.00
10644;DHT22;5370;50.132;8.626;2023-07-09T03:14:42;20.50;60.10
10644;DHT22;5370;50.132;8.626;2023-07-09T03:17:08;20.50;60.20
10644;DHT22;5370;50.132;8.626;2023-07-09T03:19:33;20.50;60.20
10644;DHT22;5370;50.132;8.626;2023-07-09T03:21:59;20.50;60.40
10644;DHT22;5370;50.132;8.626;2023-07-09T03:24:25;20.50;60.60
10644;DHT22;5370;50.132;8.626;2023-07-09T03:26:50;20.40;60.70
10644;DHT22;5370;50.132;8.626;2023-07-09T03:29:16;20.40;60.80
10644;DHT22;5370;50.132;8.626;2023-07-09T03:31:41;20.40;60.80
10644;DHT22;5370;50.132;8.626;2023-07-09T03:34:07;20.40;60.80
10644;DHT22;5370;50.132;8.626;2023-07-09T03:36:32;20.40;60.80
10644;DHT22;5370;50.132;8.626;2023-07-09T03:38:58;20.40;60.80
10644;DHT22;5370;50.132;8.626;2023-07-09T03:41:24;20.30;60.80
10644;DHT22;5370;50.132;8.626;2023-07-09T03:43:50;20.30;60.80
10644;DHT22;5370;50.132;8.626;2023-07-09T03:46:18;20.30;60.80
10644;DHT22;5370;50.132;8.626;2023-07-09T03:48:43;20.30;60.90
10644;DHT22;5370;50.132;8.626;2023-07-09T03:51:09;20.30;61.20
10644;DHT22;5370;50.132;8.626;2023-07-09T03:53:34;20.30;61.30
10644;DHT22;5370;50.132;8.626;2023-07-09T03:56:00;20.30;61.40
10644;DHT22;5370;50.132;8.626;2023-07-09T03:58:26;20.20;61.30
10644;DHT22;5370;50.132;8.626;2023-07-09T04:00:52;20.20;61.30
10644;DHT22;5370;50.132;8.626;2023-07-09T04:03:19;20.20;61.50
10644;DHT22;5370;50.132;8.626;2023-07-09T04:05:45;20.20;61.60
10644;DHT22;5370;50.132;8.626;2023-07-09T04:08:10;20.20;61.50
10644;DHT22;5370;50.132;8.626;2023-07-09T04:10:36;20.20;61.60
10644;DHT22;5370;50.132;8.626;2023-07-09T04:13:01;20.20;61.60
10644;DHT22;5370;50.132;8.626;2023-07-09T04:15:27;20.20;61.50
10644;DHT22;5370;50.132;8.626;2023-07-09T04:17:52;20.20;61.40
10644;DHT22;5370;50.132;8.626;2023-07-09T04:20:18;20.30;61.50
10644;DHT22;5370;50.132;8.626;2023-07-09T04:22:44;20.30;61.40
10644;DHT22;5370;50.132;8.626;2023-07-09T04:25:10;20.40;61.40
10644;DHT22;5370;50.132;8.626;2023-07-09T04:27:37;20.50;61.30
10644;DHT22;5370;50.132;8.626;2023-07-09T04:30:03;20.60;61.00
10644;DHT22;5370;50.132;8.626;2023-07-09T04:32:30;20.70;60.80
10644;DHT22;5370;50.132;8.626;2023-07-09T04:34:55;20.80;60.50
10644;DHT22;5370;50.132;8.626;2023-07-09T04:37:21;20.90;60.40
10644;DHT22;5370;50.132;8.626;2023-07-09T04:39:47;21.00;60.30
10644;DHT22;5370;50.132;8.626;2023-07-09T04:42:15;21.10;59.90
10644;DHT22;5370;50.132;8.626;2023-07-09T04:44:43;21.10;60.10
10644;DHT22;5370;50.132;8.626;2023-07-09T04:47:08;21.20;59.40
10644;DHT22;5370;50.132;8.626;2023-07-09T04:49:34;21.30;59.20
10644;DHT22;5370;50.132;8.626;2023-07-09T04:51:59;21.30;59.00
10644;DHT22;5370;50.132;8.626;2023-07-09T04:54:26;21.40;58.80
10644;DHT22;5370;50.132;8.626;2023-07-09T04:56:52;21.50;58.70
10644;DHT22;5370;50.132;8.626;2023-07-09T04:59:18;21.50;58.50
10644;DHT22;5370;50.132;8.626;2023-07-09T05:01:44;21.60;58.40
10644;DHT22;5370;50.132;8.626;2023-07-09T05:04:09;21.70;58.30
10644;DHT22;5370;50.132;8.626;2023-07-09T05:06:35;21.80;58.20
10644;DHT22;5370;50.132;8.626;2023-07-09T05:09:00;21.90;58.00
10644;DHT22;5370;50.132;8.626;2023-07-09T05:11:26;22.00;57.90
10644;DHT22;5370;50.132;8.626;2023-07-09T05:13:52;22.10;57.70
10644;DHT22;5370;50.132;8.626;2023-07-09T05:16:17;22.20;57.60
10644;DHT22;5370;50.132;8.626;2023-07-09T05:18:45;22.30;57.50
10644;DHT22;5370;50.132;8.626;2023-07-09T05:21:11;22.50;57.30
10644;DHT22;5370;50.132;8.626;2023-07-09T05:23:36;22.50;57.10
10644;DHT22;5370;50.132;8.626;2023-07-09T05:26:03;22.60;57.10
10644;DHT22;5370;50.132;8.626;2023-07-09T05:28:30;22.80;56.90
10644;DHT22;5370;50.132;8.626;2023-07-09T05:30:55;22.90;56.60
10644;DHT22;5370;50.132;8.626;2023-07-09T05:33:21;23.10;56.40
10644;DHT22;5370;50.132;8.626;2023-07-09T05:35:47;23.20;56.10
10644;DHT22;5370;50.132;8.626;2023-07-09T05:38:13;23.40;55.80
10644;DHT22;5370;50.132;8.626;2023-07-09T05:40:39;23.70;55.50
10644;DHT22;5370;50.132;8.626;2023-07-09T05:43:05;24.30;55.40
10644;DHT22;5370;50.132;8.626;2023-07-09T05:45:31;25.20;54.40
10644;DHT22;5370;50.132;8.626;2023-07-09T05:48:00;26.20;52.70
10644;DHT22;5370;50.132;8.626;2023-07-09T05:50:27;27.50;50.40
10644;DHT22;5370;50.132;8.626;2023-07-09T05:52:53;28.70;48.60
10644;DHT22;5370;50.132;8.626;2023-07-09T05:55:19;29.80;46.70
10644;DHT22;5370;50.132;8.626;2023-07-09T05:57:44;30.80;44.70
10644;DHT22;5370;50.132;8.626;2023-07-09T06:00:11;31.60;43.50
10644;DHT22;5370;50.132;8.626;2023-07-09T06:02:37;32.40;41.90
10644;DHT22;5370;50.132;8.626;2023-07-09T06:05:03;33.20;40.60
10644;DHT22;5370;50.132;8.626;2023-07-09T06:07:29;34.00;38.90
10644;DHT22;5370;50.132;8.626;2023-07-09T06:09:55;34.90;37.50
10644;DHT22;5370;50.132;8.626;2023-07-09T06:12:20;35.70;36.00
10644;DHT22;5370;50.132;8.626;2023-07-09T06:14:46;36.30;34.80
10644;DHT22;5370;50.132;8.626;2023-07-09T06:17:12;36.60;33.50
10644;DHT22;5370;50.132;8.626;2023-07-09T06:19:39;36.70;33.10
10644;DHT22;5370;50.132;8.626;2023-07-09T06:22:05;36.90;32.80
10644;DHT22;5370;50.132;8.626;2023-07-09T06:24:30;37.30;32.20
10644;DHT22;5370;50.132;8.626;2023-07-09T06:26:56;37.90;31.50
10644;DHT22;5370;50.132;8.626;2023-07-09T06:29:21;38.60;30.70
10644;DHT22;5370;50.132;8.626;2023-07-09T06:31:47;39.40;29.70
10644;DHT22;5370;50.132;8.626;2023-07-09T06:34:13;40.20;28.90
10644;DHT22;5370;50.132;8.626;2023-07-09T06:36:38;41.00;28.00
10644;DHT22;5370;50.132;8.626;2023-07-09T06:39:04;41.60;26.80
10644;DHT22;5370;50.132;8.626;2023-07-09T06:41:30;41.60;26.30
10644;DHT22;5370;50.132;8.626;2023-07-09T06:43:57;42.00;26.20
10644;DHT22;5370;50.132;8.626;2023-07-09T06:46:23;42.70;25.90
10644;DHT22;5370;50.132;8.626;2023-07-09T06:48:49;43.30;25.30
10644;DHT22;5370;50.132;8.626;2023-07-09T06:51:14;43.90;24.60
10644;DHT22;5370;50.132;8.626;2023-07-09T06:53:40;44.10;24.00
10644;DHT22;5370;50.132;8.626;2023-07-09T06:56:06;44.30;23.80
10644;DHT22;5370;50.132;8.626;2023-07-09T06:58:32;44.50;23.40
10644;DHT22;5370;50.132;8.626;2023-07-09T07:01:00;44.50;23.30
10644;DHT22;5370;50.132;8.626;2023-07-09T07:03:29;44.70;23.20
10644;DHT22;5370;50.132;8.626;2023-07-09T07:05:55;45.20;23.00
10644;DHT22;5370;50.132;8.626;2023-07-09T07:08:22;45.60;22.60
10644;DHT22;5370;50.132;8.626;2023-07-09T07:10:57;46.10;22.40
10644;DHT22;5370;50.132;8.626;2023-07-09T07:13:33;46.20;21.80
10644;DHT22;5370;50.132;8.626;2023-07-09T07:15:59;46.40;21.80
10644;DHT22;5370;50.132;8.626;2023-07-09T07:18:24;46.70;21.80
10644;DHT22;5370;50.132;8.626;2023-07-09T07:20:50;47.20;21.20
10644;DHT22;5370;50.132;8.626;2023-07-09T07:23:16;47.60;20.70
10644;DHT22;5370;50.132;8.626;2023-07-09T07:25:42;48.00;20.40
10644;DHT22;5370;50.132;8.626;2023-07-09T07:28:07;48.60;20.00
10644;DHT22;5370;50.132;8.626;2023-07-09T07:30:33;49.00;19.60
10644;DHT22;5370;50.132;8.626;2023-07-09T07:32:59;49.40;19.30
10644;DHT22;5370;50.132;8.626;2023-07-09T07:35:24;49.60;18.80
10644;DHT22;5370;50.132;8.626;2023-07-09T07:37:50;49.50;18.90
10644;DHT22;5370;50.132;8.626;2023-07-09T07:40:15;49.70;18.80
10644;DHT22;5370;50.132;8.626;2023-07-09T07:42:41;49.80;18.70
10644;DHT22;5370;50.132;8.626;2023-07-09T07:45:07;50.00;18.70
10644;DHT22;5370;50.132;8.626;2023-07-09T07:47:33;50.30;18.40
10644;DHT22;5370;50.132;8.626;2023-07-09T07:49:59;50.70;17.90
10644;DHT22;5370;50.132;8.626;2023-07-09T07:52:24;50.90;17.70
10644;DHT22;5370;50.132;8.626;2023-07-09T07:54:51;50.90;17.50
10644;DHT22;5370;50.132;8.626;2023-07-09T07:57:18;51.10;17.60
10644;DHT22;5370;50.132;8.626;2023-07-09T07:59:43;51.60;17.50
10644;DHT22;5370;50.132;8.626;2023-07-09T08:02:13;52.10;17.10
10644;DHT22;5370;50.132;8.626;2023-07-09T08:04:40;52.70;16.80
10644;DHT22;5370;50.132;8.626;2023-07-09T08:07:08;53.10;16.50
10644;DHT22;5370;50.132;8.626;2023-07-09T08:09:34;53.50;16.10
10644;DHT22;5370;50.132;8.626;2023-07-09T08:12:00;54.10;15.90
10644;DHT22;5370;50.132;8.626;2023-07-09T08:14:25;54.40;15.60
10644;DHT22;5370;50.132;8.626;2023-07-09T08:16:51;54.80;15.30
10644;DHT22;5370;50.132;8.626;2023-07-09T08:19:18;55.10;15.10
10644;DHT22;5370;50.132;8.626;2023-07-09T08:21:44;55.20;14.80
10644;DHT22;5370;50.132;8.626;2023-07-09T08:24:10;55.40;14.70
10644;DHT22;5370;50.132;8.626;2023-07-09T08:26:36;55.70;14.60
10644;DHT22;5370;50.132;8.626;2023-07-09T08:29:03;55.90;14.70
10644;DHT22;5370;50.132;8.626;2023-07-09T08:31:29;56.00;14.40
10644;DHT22;5370;50.132;8.626;2023-07-09T08:33:54;56.00;14.40
10644;DHT22;5370;50.132;8.626;2023-07-09T08:36:20;55.70;14.20
10644;DHT22;5370;50.132;8.626;2023-07-09T08:38:45;55.50;14.50
10644;DHT22;5370;50.132;8.626;2023-07-09T08:41:54;54.90;14.70
10644;DHT22;5370;50.132;8.626;2023-07-09T08:50:24;52.70;15.50
10644;DHT22;5370;50.132;8.626;2023-07-09T08:52:51;51.50;16.00
10644;DHT22;5370;50.132;8.626;2023-07-09T08:55:19;50.20;16.70
10644;DHT22;5370;50.132;8.626;2023-07-09T08:58:16;48.90;17.70
10644;DHT22;5370;50.132;8.626;2023-07-09T09:00:55;47.40;18.40
10644;DHT22;5370;50.132;8.626;2023-07-09T09:03:32;45.90;19.70
10644;DHT22;5370;50.132;8.626;2023-07-09T09:06:01;44.40;20.80
10644;DHT22;5370;50.132;8.626;2023-07-09T09:08:44;42.90;21.90
10644;DHT22;5370;50.132;8.626;2023-07-09T09:11:21;41.70;22.90
10644;DHT22;5370;50.132;8.626;2023-07-09T09:13:53;40.70;23.80
10644;DHT22;5370;50.132;8.626;2023-07-09T09:16:38;39.70;24.80
10644;DHT22;5370;50.132;8.626;2023-07-09T09:19:16;38.80;25.50
10644;DHT22;5370;50.132;8.626;2023-07-09T09:21:43;38.10;26.10
10644;DHT22;5370;50.132;8.626;2023-07-09T09:24:21;37.50;26.70
10644;DHT22;5370;50.132;8.626;2023-07-09T09:26:50;37.00;27.60
10644;DHT22;5370;50.132;8.626;2023-07-09T09:29:17;36.60;28.10
10644;DHT22;5370;50.132;8.626;2023-07-09T09:31:45;36.20;28.50
10644;DHT22;5370;50.132;8.626;2023-07-09T09:34:26;35.90;28.90
10644;DHT22;5370;50.132;8.626;2023-07-09T09:36:52;35.70;29.30
10644;DHT22;5370;50.132;8.626;2023-07-09T09:39:18;35.50;29.20
10644;DHT22;5370;50.132;8.626;2023-07-09T09:41:44;35.40;29.40
10644;DHT22;5370;50.132;8.626;2023-07-09T09:44:28;35.30;29.80
10644;DHT22;5370;50.132;8.626;2023-07-09T09:46:56;35.20;29.90
10644;DHT22;5370;50.132;8.626;2023-07-09T09:49:22;35.10;29.90
10644;DHT22;5370;50.132;8.626;2023-07-09T09:51:48;35.00;30.00
10644;DHT22;5370;50.132;8.626;2023-07-09T09:54:20;35.00;30.10
10644;DHT22;5370;50.132;8.626;2023-07-09T09:56:49;35.00;30.10
10644;DHT22;5370;50.132;8.626;2023-07-09T09:59:27;35.00;30.10
10644;DHT22;5370;50.132;8.626;2023-07-09T10:01:59;35.00;30.20
10644;DHT22;5370;50.132;8.626;2023-07-09T10:04:26;34.90;30.40
10644;DHT22;5370;50.132;8.626;2023-07-09T10:06:57;34.90;30.50
10644;DHT22;5370;50.132;8.626;2023-07-09T10:09:47;34.90;30.70
10644;DHT22;5370;50.132;8.626;2023-07-09T10:25:28;34.90;30.60
10644;DHT22;5370;50.132;8.626;2023-07-09T10:31:13;34.90;30.70
10644;DHT22;5370;50.132;8.626;2023-07-09T10:39:37;35.00;30.50
10644;DHT22;5370;50.132;8.626;2023-07-09T10:42:04;35.00;30.60
10644;DHT22;5370;50.132;8.626;2023-07-09T10:44:36;35.00;30.60
10644;DHT22;5370;50.132;8.626;2023-07-09T10:47:18;35.00;30.50
10644;DHT22;5370;50.132;8.626;2023-07-09T10:49:45;35.10;30.60
10644;DHT22;5370;50.132;8.626;2023-07-09T10:52:26;35.20;30.60
10644;DHT22;5370;50.132;8.626;2023-07-09T10:55:20;35.20;30.30
10644;DHT22;5370;50.132;8.626;2023-07-09T11:00:35;35.40;30.30
10644;DHT22;5370;50.132;8.626;2023-07-09T11:03:26;35.50;30.20
10644;DHT22;5370;50.132;8.626;2023-07-09T11:05:53;35.50;30.00
10644;DHT22;5370;50.132;8.626;2023-07-09T11:08:28;35.60;29.80
10644;DHT22;5370;50.132;8.626;2023-07-09T11:10:59;35.60;29.60
10644;DHT22;5370;50.132;8.626;2023-07-09T11:13:38;35.60;29.40
10644;DHT22;5370;50.132;8.626;2023-07-09T11:16:06;35.70;29.80
10644;DHT22;5370;50.132;8.626;2023-07-09T11:18:35;35.70;29.30
10644;DHT22;5370;50.132;8.626;2023-07-09T11:21:05;35.80;29.50
10644;DHT22;5370;50.132;8.626;2023-07-09T11:23:52;35.90;29.40
10644;DHT22;5370;50.132;8.626;2023-07-09T11:26:30;35.90;28.90
10644;DHT22;5370;50.132;8.626;2023-07-09T11:29:15;36.10;29.00
10644;DHT22;5370;50.132;8.626;2023-07-09T11:31:44;36.10;28.80
10644;DHT22;5370;50.132;8.626;2023-07-09T11:39:30;36.20;28.60
10644;DHT22;5370;50.132;8.626;2023-07-09T11:41:58;36.30;28.60
10644;DHT22;5370;50.132;8.626;2023-07-09T11:44:33;36.30;28.60
10644;DHT22;5370;50.132;8.626;2023-07-09T11:47:30;36.30;28.50
10644;DHT22;5370;50.132;8.626;2023-07-09T11:52:30;36.40;28.40
10644;DHT22;5370;50.132;8.626;2023-07-09T11:54:57;36.50;28.40
10644;DHT22;5370;50.132;8.626;2023-07-09T11:57:22;36.50;28.20
10644;DHT22;5370;50.132;8.626;2023-07-09T11:59:48;36.60;28.00
10644;DHT22;5370;50.132;8.626;2023-07-09T12:02:20;36.60;28.00
10644;DHT22;5370;50.132;8.626;2023-07-09T12:04:50;36.70;28.10
10644;DHT22;5370;50.132;8.626;2023-07-09T12:07:17;36.70;28.30
10644;DHT22;5370;50.132;8.626;2023-07-09T12:09:49;36.80;28.10
10644;DHT22;5370;50.132;8.626;2023-07-09T12:12:28;36.80;27.30
10644;DHT22;5370;50.132;8.626;2023-07-09T12:14:55;36.90;26.80
10644;DHT22;5370;50.132;8.626;2023-07-09T12:17:26;37.00;26.50
10644;DHT22;5370;50.132;8.626;2023-07-09T12:19:52;37.00;26.50
10644;DHT22;5370;50.132;8.626;2023-07-09T12:22:21;37.00;26.50
10644;DHT22;5370;50.132;8.626;2023-07-09T12:24:49;37.10;26.70
10644;DHT22;5370;50.132;8.626;2023-07-09T12:27:26;37.20;26.50
10644;DHT22;5370;50.132;8.626;2023-07-09T12:29:55;37.20;26.50
10644;DHT22;5370;50.132;8.626;2023-07-09T12:32:21;37.30;26.60
10644;DHT22;5370;50.132;8.626;2023-07-09T12:34:53;37.40;26.50
10644;DHT22;5370;50.132;8.626;2023-07-09T12:37:20;37.50;26.30
10644;DHT22;5370;50.132;8.626;2023-07-09T12:39:47;37.60;26.10
10644;DHT22;5370;50.132;8.626;2023-07-09T12:42:18;37.60;25.70
10644;DHT22;5370;50.132;8.626;2023-07-09T12:44:44;37.70;25.80
10644;DHT22;5370;50.132;8.626;2023-07-09T12:47:14;37.70;25.70
10644;DHT22;5370;50.132;8.626;2023-07-09T12:49:42;37.70;25.80
10644;DHT22;5370;50.132;8.626;2023-07-09T12:52:27;37.70;26.00
10644;DHT22;5370;50.132;8.626;2023-07-09T12:54:57;37.80;26.20
10644;DHT22;5370;50.132;8.626;2023-07-09T12:57:24;37.90;26.00
10644;DHT22;5370;50.132;8.626;2023-07-09T12:59:50;37.90;26.10
10644;DHT22;5370;50.132;8.626;2023-07-09T13:02:19;38.00;26.10
10644;DHT22;5370;50.132;8.626;2023-07-09T13:04:46;38.10;26.20
10644;DHT22;5370;50.132;8.626;2023-07-09T13:09:51;38.20;25.70
10644;DHT22;5370;50.132;8.626;2023-07-09T13:12:17;38.20;25.60
10644;DHT22;5370;50.132;8.626;2023-07-09T13:14:52;38.20;25.90
10644;DHT22;5370;50.132;8.626;2023-07-09T13:17:18;38.20;25.60
10644;DHT22;5370;50.132;8.626;2023-07-09T13:19:43;38.30;25.60
10644;DHT22;5370;50.132;8.626;2023-07-09T13:22:16;38.40;25.70
10644;DHT22;5370;50.132;8.626;2023-07-09T13:24:42;38.40;24.90
10644;DHT22;5370;50.132;8.626;2023-07-09T13:27:11;38.50;24.70
10644;DHT22;5370;50.132;8.626;2023-07-09T13:29:37;38.60;24.90
10644;DHT22;5370;50.132;8.626;2023-07-09T13:32:12;38.60;24.30
10644;DHT22;5370;50.132;8.626;2023-07-09T13:34:38;38.60;23.90
10644;DHT22;5370;50.132;8.626;2023-07-09T13:37:05;38.40;24.00
10644;DHT22;5370;50.132;8.626;2023-07-09T13:39:34;38.40;23.90
10644;DHT22;5370;50.132;8.626;2023-07-09T13:42:00;38.50;24.10
10644;DHT22;5370;50.132;8.626;2023-07-09T13:44:28;38.50;24.10
10644;DHT22;5370;50.132;8.626;2023-07-09T13:46:55;38.50;24.30
10644;DHT22;5370;50.132;8.626;2023-07-09T13:49:23;38.60;24.30
10644;DHT22;5370;50.132;8.626;2023-07-09T13:51:53;38.60;24.20
10644;DHT22;5370;50.132;8.626;2023-07-09T13:54:22;38.70;23.90
10644;DHT22;5370;50.132;8.626;2023-07-09T13:56:49;38.70;23.80
10644;DHT22;5370;50.132;8.626;2023-07-09T13:59:17;38.70;23.90
10644;DHT22;5370;50.132;8.626;2023-07-09T14:01:44;38.70;23.80
10644;DHT22;5370;50.132;8.626;2023-07-09T14:04:12;38.70;23.80
10644;DHT22;5370;50.132;8.626;2023-07-09T14:06:38;38.70;23.90
10644;DHT22;5370;50.132;8.626;2023-07-09T14:09:04;38.80;24.10
10644;DHT22;5370;50.132;8.626;2023-07-09T14:11:29;38.70;24.10
10644;DHT22;5370;50.132;8.626;2023-07-09T14:13:55;38.70;24.20
10644;DHT22;5370;50.132;8.626;2023-07-09T14:16:21;38.60;24.20
10644;DHT22;5370;50.132;8.626;2023-07-09T14:18:47;38.60;24.30
10644;DHT22;5370;50.132;8.626;2023-07-09T14:21:16;38.50;24.40
10644;DHT22;5370;50.132;8.626;2023-07-09T14:23:42;38.50;24.40
10644;DHT22;5370;50.132;8.626;2023-07-09T14:26:10;38.40;24.60
10644;DHT22;5370;50.132;8.626;2023-07-09T14:28:35;38.40;24.60
10644;DHT22;5370;50.132;8.626;2023-07-09T14:31:04;38.40;24.60
10644;DHT22;5370;50.132;8.626;2023-07-09T14:33:35;38.50;24.80
10644;DHT22;5370;50.132;8.626;2023-07-09T14:36:00;38.40;24.80
10644;DHT22;5370;50.132;8.626;2023-07-09T14:38:26;38.40;24.80
10644;DHT22;5370;50.132;8.626;2023-07-09T14:40:53;38.40;24.80
10644;DHT22;5370;50.132;8.626;2023-07-09T14:43:21;38.40;24.60
10644;DHT22;5370;50.132;8.626;2023-07-09T14:45:47;38.30;24.70
10644;DHT22;5370;50.132;8.626;2023-07-09T14:48:18;38.30;24.80
10644;DHT22;5370;50.132;8.626;2023-07-09T14:50:45;38.30;24.80
10644;DHT22;5370;50.132;8.626;2023-07-09T14:55:44;38.40;25.10
10644;DHT22;5370;50.132;8.626;2023-07-09T14:58:22;38.40;24.80
10644;DHT22;5370;50.132;8.626;2023-07-09T15:00:49;38.50;24.50
10644;DHT22;5370;50.132;8.626;2023-07-09T15:03:23;38.50;24.60
10644;DHT22;5370;50.132;8.626;2023-07-09T15:05:50;38.60;24.60
10644;DHT22;5370;50.132;8.626;2023-07-09T15:08:18;38.60;24.40
10644;DHT22;5370;50.132;8.626;2023-07-09T15:10:45;38.60;24.50
10644;DHT22;5370;50.132;8.626;2023-07-09T15:13:31;38.70;24.50
10644;DHT22;5370;50.132;8.626;2023-07-09T15:15:59;38.70;24.10
10644;DHT22;5370;50.132;8.626;2023-07-09T15:18:24;38.80;24.10
10644;DHT22;5370;50.132;8.626;2023-07-09T15:20:55;38.80;24.00
10644;DHT22;5370;50.132;8.626;2023-07-09T15:23:22;38.80;24.00
10644;DHT22;5370;50.132;8.626;2023-07-09T15:25:48;38.70;24.10
10644;DHT22;5370;50.132;8.626;2023-07-09T15:28:14;38.60;24.20
10644;DHT22;5370;50.132;8.626;2023-07-09T15:30:40;38.50;24.30
10644;DHT22;5370;50.132;8.626;2023-07-09T15:33:13;38.40;24.40
10644;DHT22;5370;50.132;8.626;2023-07-09T15:35:41;38.40;24.40
10644;DHT22;5370;50.132;8.626;2023-07-09T15:38:32;38.30;24.40
10644;DHT22;5370;50.132;8.626;2023-07-09T15:41:00;38.10;24.40
10644;DHT22;5370;50.132;8.626;2023-07-09T15:43:26;38.00;24.60
10644;DHT22;5370;50.132;8.626;2023-07-09T15:45:55;37.90;24.80
10644;DHT22;5370;50.132;8.626;2023-07-09T15:48:26;37.80;25.10
10644;DHT22;5370;50.132;8.626;2023-07-09T15:50:52;37.80;25.40
10644;DHT22;5370;50.132;8.626;2023-07-09T15:53:19;37.60;25.30
10644;DHT22;5370;50.132;8.626;2023-07-09T15:55:45;37.60;25.80
10644;DHT22;5370;50.132;8.626;2023-07-09T15:58:18;37.50;25.70
10644;DHT22;5370;50.132;8.626;2023-07-09T16:00:45;37.30;25.40
10644;DHT22;5370;50.132;8.626;2023-07-09T16:03:11;37.20;25.50
10644;DHT22;5370;50.132;8.626;2023-07-09T16:05:37;37.10;25.70
10644;DHT22;5370;50.132;8.626;2023-07-09T16:08:03;37.00;25.90
10644;DHT22;5370;50.132;8.626;2023-07-09T16:10:30;36.90;26.00
10644;DHT22;5370;50.132;8.626;2023-07-09T16:12:56;36.70;26.10
10644;DHT22;5370;50.132;8.626;2023-07-09T16:15:23;36.60;26.30
10644;DHT22;5370;50.132;8.626;2023-07-09T16:17:50;36.40;26.40
10644;DHT22;5370;50.132;8.626;2023-07-09T16:20:23;36.30;26.40
10644;DHT22;5370;50.132;8.626;2023-07-09T16:22:54;36.20;26.50
10644;DHT22;5370;50.132;8.626;2023-07-09T16:25:22;36.10;26.80
10644;DHT22;5370;50.132;8.626;2023-07-09T16:27:49;36.00;26.90
10644;DHT22;5370;50.132;8.626;2023-07-09T16:30:17;35.90;27.10
10644;DHT22;5370;50.132;8.626;2023-07-09T16:32:44;35.90;27.10
10644;DHT22;5370;50.132;8.626;2023-07-09T16:35:16;35.80;27.20
10644;DHT22;5370;50.132;8.626;2023-07-09T16:37:43;35.80;27.40